sensor_id;sensor_type;location;lat;lon;timestamp;P1;durP1;ratioP1;P2;durP2;ratioP2
56455;SDS011;42354;53.218;6.564;2023-03-01T00:01:08;62.50;;;29.55;;
56455;SDS011;42354;53.218;6.564;2023-03-01T00:03:46;65.35;;;27.98;;
56455;SDS011;42354;53.218;6.564;2023-03-01T00:06:11;74.35;;;31.58;;
56455;SDS011;42354;53.218;6.564;2023-03-01T00:08:37;73.55;;;33.10;;
56455;SDS011;42354;53.218;6.564;2023-03-01T00:11:13;81.00;;;33.15;;
56455;SDS011;42354;53.218;6.564;2023-03-01T00:13:43;80.68;;;32.03;;
56455;SDS011;42354;53.218;6.564;2023-03-01T00:16:11;71.07;;;30.92;;
56455;SDS011;42354;53.218;6.564;2023-03-01T00:18:38;72.95;;;31.23;;
56455;SDS011;42354;53.218;6.564;2023-03-01T00:21:04;80.60;;;33.70;;
56455;SDS011;42354;53.218;6.564;2023-03-01T00:23:30;75.85;;;34.45;;
56455;SDS011;42354;53.218;6.564;2023-03-01T00:25:57;84.20;;;35.97;;
56455;SDS011;42354;53.218;6.564;2023-03-01T00:28:24;84.32;;;36.40;;
56455;SDS011;42354;53.218;6.564;2023-03-01T00:30:50;88.85;;;36.80;;
56455;SDS011;42354;53.218;6.564;2023-03-01T00:33:16;77.25;;;32.78;;
56455;SDS011;42354;53.218;6.564;2023-03-01T00:35:41;62.40;;;29.52;;
56455;SDS011;42354;53.218;6.564;2023-03-01T00:38:07;58.80;;;27.90;;
56455;SDS011;42354;53.218;6.564;2023-03-01T00:40:33;54.28;;;26.08;;
56455;SDS011;42354;53.218;6.564;2023-03-01T00:43:01;53.28;;;25.55;;
56455;SDS011;42354;53.218;6.564;2023-03-01T00:45:27;60.90;;;26.85;;
56455;SDS011;42354;53.218;6.564;2023-03-01T00:47:54;58.80;;;26.27;;
56455;SDS011;42354;53.218;6.564;2023-03-01T00:50:20;54.75;;;26.13;;
56455;SDS011;42354;53.218;6.564;2023-03-01T00:52:45;54.08;;;25.88;;
56455;SDS011;42354;53.218;6.564;2023-03-01T00:55:11;57.78;;;26.85;;
56455;SDS011;42354;53.218;6.564;2023-03-01T00:57:37;62.08;;;29.50;;
56455;SDS011;42354;53.218;6.564;2023-03-01T01:00:06;60.10;;;27.70;;
56455;SDS011;42354;53.218;6.564;2023-03-01T01:02:33;63.67;;;29.48;;
56455;SDS011;42354;53.218;6.564;2023-03-01T01:04:59;60.35;;;27.92;;
56455;SDS011;42354;53.218;6.564;2023-03-01T01:07:25;61.55;;;28.55;;
56455;SDS011;42354;53.218;6.564;2023-03-01T01:09:51;63.08;;;28.52;;
56455;SDS011;42354;53.218;6.564;2023-03-01T01:12:16;64.20;;;28.77;;
56455;SDS011;42354;53.218;6.564;2023-03-01T01:14:42;67.72;;;30.02;;
56455;SDS011;42354;53.218;6.564;2023-03-01T01:17:07;67.70;;;29.58;;
56455;SDS011;42354;53.218;6.564;2023-03-01T01:19:32;59.67;;;28.80;;
56455;SDS011;42354;53.218;6.564;2023-03-01T01:21:58;62.72;;;27.98;;
56455;SDS011;42354;53.218;6.564;2023-03-01T01:24:23;62.45;;;27.73;;
56455;SDS011;42354;53.218;6.564;2023-03-01T01:26:49;60.47;;;28.35;;
56455;SDS011;42354;53.218;6.564;2023-03-01T01:29:15;73.45;;;31.58;;
56455;SDS011;42354;53.218;6.564;2023-03-01T01:31:41;75.10;;;34.65;;
56455;SDS011;42354;53.218;6.564;2023-03-01T01:34:10;88.10;;;38.40;;
56455;SDS011;42354;53.218;6.564;2023-03-01T01:36:39;79.55;;;34.15;;
56455;SDS011;42354;53.218;6.564;2023-03-01T01:39:04;75.57;;;34.72;;
56455;SDS011;42354;53.218;6.564;2023-03-01T01:41:30;64.32;;;30.80;;
56455;SDS011;42354;53.218;6.564;2023-03-01T01:46:37;70.07;;;31.52;;
56455;SDS011;42354;53.218;6.564;2023-03-01T01:49:16;75.18;;;34.13;;
56455;SDS011;42354;53.218;6.564;2023-03-01T01:52:48;68.57;;;31.85;;
56455;SDS011;42354;53.218;6.564;2023-03-01T01:54:52;75.32;;;33.00;;
56455;SDS011;42354;53.218;6.564;2023-03-01T01:57:26;87.60;;;37.40;;
56455;SDS011;42354;53.218;6.564;2023-03-01T01:59:58;92.47;;;39.20;;
56455;SDS011;42354;53.218;6.564;2023-03-01T02:02:25;86.47;;;39.80;;
56455;SDS011;42354;53.218;6.564;2023-03-01T02:04:53;99.47;;;40.10;;
56455;SDS011;42354;53.218;6.564;2023-03-01T02:07:28;80.97;;;37.33;;
56455;SDS011;42354;53.218;6.564;2023-03-01T02:09:55;96.28;;;42.22;;
56455;SDS011;42354;53.218;6.564;2023-03-01T02:12:21;97.50;;;41.33;;
56455;SDS011;42354;53.218;6.564;2023-03-01T02:14:49;90.85;;;40.67;;
56455;SDS011;42354;53.218;6.564;2023-03-01T02:17:15;77.63;;;35.45;;
56455;SDS011;42354;53.218;6.564;2023-03-01T02:19:44;73.93;;;32.00;;
56455;SDS011;42354;53.218;6.564;2023-03-01T02:22:17;72.88;;;31.58;;
56455;SDS011;42354;53.218;6.564;2023-03-01T02:24:47;71.72;;;31.45;;
56455;SDS011;42354;53.218;6.564;2023-03-01T02:27:27;65.97;;;29.33;;
56455;SDS011;42354;53.218;6.564;2023-03-01T02:29:58;65.25;;;30.95;;
56455;SDS011;42354;53.218;6.564;2023-03-01T02:32:24;71.13;;;28.88;;
56455;SDS011;42354;53.218;6.564;2023-03-01T02:34:53;64.43;;;28.02;;
56455;SDS011;42354;53.218;6.564;2023-03-01T02:37:20;66.00;;;30.27;;
56455;SDS011;42354;53.218;6.564;2023-03-01T02:39:50;71.93;;;30.58;;
56455;SDS011;42354;53.218;6.564;2023-03-01T02:42:25;63.05;;;27.85;;
56455;SDS011;42354;53.218;6.564;2023-03-01T02:44:53;54.20;;;25.35;;
56455;SDS011;42354;53.218;6.564;2023-03-01T02:47:19;68.10;;;27.63;;
56455;SDS011;42354;53.218;6.564;2023-03-01T02:49:44;58.22;;;26.02;;
56455;SDS011;42354;53.218;6.564;2023-03-01T02:55:14;60.65;;;25.67;;
56455;SDS011;42354;53.218;6.564;2023-03-01T02:57:42;53.95;;;26.65;;
56455;SDS011;42354;53.218;6.564;2023-03-01T03:00:13;58.95;;;26.92;;
56455;SDS011;42354;53.218;6.564;2023-03-01T03:02:44;58.30;;;27.35;;
56455;SDS011;42354;53.218;6.564;2023-03-01T03:05:13;62.75;;;26.95;;
56455;SDS011;42354;53.218;6.564;2023-03-01T03:07:42;57.03;;;26.17;;
56455;SDS011;42354;53.218;6.564;2023-03-01T03:10:11;62.15;;;27.35;;
56455;SDS011;42354;53.218;6.564;2023-03-01T03:12:39;59.83;;;25.92;;
56455;SDS011;42354;53.218;6.564;2023-03-01T03:15:05;58.13;;;26.65;;
56455;SDS011;42354;53.218;6.564;2023-03-01T03:17:36;55.67;;;26.45;;
56455;SDS011;42354;53.218;6.564;2023-03-01T03:20:07;60.30;;;27.38;;
56455;SDS011;42354;53.218;6.564;2023-03-01T03:25:06;51.95;;;25.08;;
56455;SDS011;42354;53.218;6.564;2023-03-01T03:27:35;52.70;;;25.10;;
56455;SDS011;42354;53.218;6.564;2023-03-01T03:30:05;54.75;;;25.08;;
56455;SDS011;42354;53.218;6.564;2023-03-01T03:32:34;49.75;;;25.10;;
56455;SDS011;42354;53.218;6.564;2023-03-01T03:35:03;52.53;;;25.83;;
56455;SDS011;42354;53.218;6.564;2023-03-01T03:37:38;50.38;;;25.15;;
56455;SDS011;42354;53.218;6.564;2023-03-01T03:40:23;51.85;;;25.75;;
56455;SDS011;42354;53.218;6.564;2023-03-01T03:42:49;52.72;;;25.85;;
56455;SDS011;42354;53.218;6.564;2023-03-01T03:45:15;51.30;;;25.77;;
56455;SDS011;42354;53.218;6.564;2023-03-01T03:47:41;50.97;;;24.88;;
56455;SDS011;42354;53.218;6.564;2023-03-01T03:50:07;51.97;;;26.40;;
56455;SDS011;42354;53.218;6.564;2023-03-01T03:52:34;57.85;;;27.15;;
56455;SDS011;42354;53.218;6.564;2023-03-01T03:54:59;56.03;;;27.45;;
56455;SDS011;42354;53.218;6.564;2023-03-01T03:57:24;58.70;;;27.70;;
56455;SDS011;42354;53.218;6.564;2023-03-01T03:59:50;52.15;;;25.17;;
56455;SDS011;42354;53.218;6.564;2023-03-01T04:02:15;53.03;;;26.63;;
56455;SDS011;42354;53.218;6.564;2023-03-01T04:04:47;47.65;;;24.73;;
56455;SDS011;42354;53.218;6.564;2023-03-01T04:07:16;46.53;;;24.15;;
56455;SDS011;42354;53.218;6.564;2023-03-01T04:09:42;49.15;;;25.00;;
56455;SDS011;42354;53.218;6.564;2023-03-01T04:12:08;47.08;;;24.55;;
56455;SDS011;42354;53.218;6.564;2023-03-01T04:14:34;49.38;;;25.20;;
56455;SDS011;42354;53.218;6.564;2023-03-01T04:17:00;48.28;;;24.10;;
56455;SDS011;42354;53.218;6.564;2023-03-01T04:19:26;40.97;;;21.60;;
56455;SDS011;42354;53.218;6.564;2023-03-01T04:21:51;47.13;;;23.40;;
56455;SDS011;42354;53.218;6.564;2023-03-01T04:24:17;47.30;;;23.27;;
56455;SDS011;42354;53.218;6.564;2023-03-01T04:26:44;41.97;;;21.63;;
56455;SDS011;42354;53.218;6.564;2023-03-01T04:29:09;46.90;;;22.40;;
56455;SDS011;42354;53.218;6.564;2023-03-01T04:31:35;46.83;;;21.67;;
56455;SDS011;42354;53.218;6.564;2023-03-01T04:34:01;50.33;;;21.10;;
56455;SDS011;42354;53.218;6.564;2023-03-01T04:36:27;41.85;;;21.25;;
56455;SDS011;42354;53.218;6.564;2023-03-01T04:38:54;44.38;;;20.35;;
56455;SDS011;42354;53.218;6.564;2023-03-01T04:41:21;40.65;;;19.10;;
56455;SDS011;42354;53.218;6.564;2023-03-01T04:43:48;48.03;;;21.73;;
56455;SDS011;42354;53.218;6.564;2023-03-01T04:46:15;40.58;;;18.52;;
56455;SDS011;42354;53.218;6.564;2023-03-01T04:48:43;35.88;;;18.52;;
56455;SDS011;42354;53.218;6.564;2023-03-01T04:51:09;32.22;;;17.40;;
56455;SDS011;42354;53.218;6.564;2023-03-01T04:53:38;33.45;;;16.27;;
56455;SDS011;42354;53.218;6.564;2023-03-01T04:56:04;31.55;;;16.40;;
56455;SDS011;42354;53.218;6.564;2023-03-01T04:58:30;29.45;;;14.77;;
56455;SDS011;42354;53.218;6.564;2023-03-01T05:00:56;27.73;;;14.73;;
56455;SDS011;42354;53.218;6.564;2023-03-01T05:03:21;27.52;;;15.35;;
56455;SDS011;42354;53.218;6.564;2023-03-01T05:05:48;28.38;;;15.15;;
56455;SDS011;42354;53.218;6.564;2023-03-01T05:08:15;30.75;;;15.35;;
56455;SDS011;42354;53.218;6.564;2023-03-01T05:10:44;29.75;;;14.60;;
56455;SDS011;42354;53.218;6.564;2023-03-01T05:13:11;25.77;;;14.07;;
56455;SDS011;42354;53.218;6.564;2023-03-01T05:15:46;27.83;;;14.02;;
56455;SDS011;42354;53.218;6.564;2023-03-01T05:18:18;24.02;;;13.45;;
56455;SDS011;42354;53.218;6.564;2023-03-01T05:20:44;24.10;;;14.25;;
56455;SDS011;42354;53.218;6.564;2023-03-01T05:23:10;37.40;;;16.02;;
56455;SDS011;42354;53.218;6.564;2023-03-01T05:25:36;29.75;;;14.95;;
56455;SDS011;42354;53.218;6.564;2023-03-01T05:28:05;30.25;;;15.27;;
56455;SDS011;42354;53.218;6.564;2023-03-01T05:30:32;32.45;;;15.27;;
56455;SDS011;42354;53.218;6.564;2023-03-01T05:32:59;30.08;;;15.65;;
56455;SDS011;42354;53.218;6.564;2023-03-01T05:35:25;29.80;;;14.95;;
56455;SDS011;42354;53.218;6.564;2023-03-01T05:37:50;28.48;;;15.30;;
56455;SDS011;42354;53.218;6.564;2023-03-01T05:40:19;32.03;;;14.73;;
56455;SDS011;42354;53.218;6.564;2023-03-01T05:42:48;29.45;;;14.95;;
56455;SDS011;42354;53.218;6.564;2023-03-01T05:45:15;26.50;;;13.45;;
56455;SDS011;42354;53.218;6.564;2023-03-01T05:47:42;27.20;;;13.52;;
56455;SDS011;42354;53.218;6.564;2023-03-01T05:50:32;27.70;;;15.07;;
56455;SDS011;42354;53.218;6.564;2023-03-01T05:53:00;27.85;;;15.00;;
56455;SDS011;42354;53.218;6.564;2023-03-01T05:55:31;25.10;;;13.43;;
56455;SDS011;42354;53.218;6.564;2023-03-01T05:58:00;29.33;;;14.23;;
56455;SDS011;42354;53.218;6.564;2023-03-01T06:00:26;23.27;;;13.50;;
56455;SDS011;42354;53.218;6.564;2023-03-01T06:02:56;28.73;;;14.43;;
56455;SDS011;42354;53.218;6.564;2023-03-01T06:05:22;25.23;;;14.38;;
56455;SDS011;42354;53.218;6.564;2023-03-01T06:07:49;29.55;;;15.50;;
56455;SDS011;42354;53.218;6.564;2023-03-01T06:10:15;27.08;;;14.43;;
56455;SDS011;42354;53.218;6.564;2023-03-01T06:12:42;29.50;;;16.13;;
56455;SDS011;42354;53.218;6.564;2023-03-01T06:15:08;31.00;;;16.88;;
56455;SDS011;42354;53.218;6.564;2023-03-01T06:17:35;32.40;;;15.98;;
56455;SDS011;42354;53.218;6.564;2023-03-01T06:22:36;29.70;;;15.48;;
56455;SDS011;42354;53.218;6.564;2023-03-01T06:25:02;29.60;;;15.82;;
56455;SDS011;42354;53.218;6.564;2023-03-01T06:27:27;30.52;;;16.15;;
56455;SDS011;42354;53.218;6.564;2023-03-01T06:29:53;30.60;;;16.20;;
56455;SDS011;42354;53.218;6.564;2023-03-01T06:32:18;26.95;;;14.45;;
56455;SDS011;42354;53.218;6.564;2023-03-01T06:34:44;30.75;;;15.85;;
56455;SDS011;42354;53.218;6.564;2023-03-01T06:37:10;30.88;;;16.65;;
56455;SDS011;42354;53.218;6.564;2023-03-01T06:39:35;34.65;;;16.98;;
56455;SDS011;42354;53.218;6.564;2023-03-01T06:42:01;34.85;;;17.65;;
56455;SDS011;42354;53.218;6.564;2023-03-01T06:44:26;33.83;;;18.00;;
56455;SDS011;42354;53.218;6.564;2023-03-01T06:46:52;29.75;;;17.77;;
56455;SDS011;42354;53.218;6.564;2023-03-01T06:49:17;42.30;;;18.67;;
56455;SDS011;42354;53.218;6.564;2023-03-01T06:51:43;34.30;;;17.90;;
56455;SDS011;42354;53.218;6.564;2023-03-01T06:54:10;36.90;;;19.42;;
56455;SDS011;42354;53.218;6.564;2023-03-01T06:56:35;40.72;;;20.45;;
56455;SDS011;42354;53.218;6.564;2023-03-01T06:59:01;40.55;;;20.33;;
56455;SDS011;42354;53.218;6.564;2023-03-01T07:01:29;42.22;;;20.17;;
56455;SDS011;42354;53.218;6.564;2023-03-01T07:03:54;40.60;;;21.10;;
56455;SDS011;42354;53.218;6.564;2023-03-01T07:06:20;46.50;;;23.00;;
56455;SDS011;42354;53.218;6.564;2023-03-01T07:08:46;53.90;;;25.67;;
56455;SDS011;42354;53.218;6.564;2023-03-01T07:11:11;66.80;;;29.70;;
56455;SDS011;42354;53.218;6.564;2023-03-01T07:13:38;59.40;;;27.13;;
56455;SDS011;42354;53.218;6.564;2023-03-01T07:16:03;63.67;;;29.90;;
56455;SDS011;42354;53.218;6.564;2023-03-01T07:18:29;67.53;;;31.52;;
56455;SDS011;42354;53.218;6.564;2023-03-01T07:20:54;73.63;;;31.73;;
56455;SDS011;42354;53.218;6.564;2023-03-01T07:23:19;70.72;;;31.30;;
56455;SDS011;42354;53.218;6.564;2023-03-01T07:25:50;69.68;;;32.83;;
56455;SDS011;42354;53.218;6.564;2023-03-01T07:28:19;69.40;;;33.58;;
56455;SDS011;42354;53.218;6.564;2023-03-01T07:30:45;70.72;;;33.05;;
56455;SDS011;42354;53.218;6.564;2023-03-01T07:33:10;70.60;;;33.38;;
56455;SDS011;42354;53.218;6.564;2023-03-01T07:35:35;67.18;;;31.98;;
56455;SDS011;42354;53.218;6.564;2023-03-01T07:38:01;64.53;;;32.58;;
56455;SDS011;42354;53.218;6.564;2023-03-01T07:40:26;71.88;;;33.58;;
56455;SDS011;42354;53.218;6.564;2023-03-01T07:42:55;72.88;;;35.15;;
56455;SDS011;42354;53.218;6.564;2023-03-01T07:45:21;70.47;;;33.60;;
56455;SDS011;42354;53.218;6.564;2023-03-01T07:47:47;70.35;;;33.92;;
56455;SDS011;42354;53.218;6.564;2023-03-01T07:50:12;68.85;;;35.58;;
56455;SDS011;42354;53.218;6.564;2023-03-01T07:52:40;75.45;;;35.38;;
56455;SDS011;42354;53.218;6.564;2023-03-01T07:55:06;74.95;;;37.03;;
56455;SDS011;42354;53.218;6.564;2023-03-01T07:57:32;70.82;;;38.50;;
56455;SDS011;42354;53.218;6.564;2023-03-01T07:59:58;79.35;;;38.67;;
56455;SDS011;42354;53.218;6.564;2023-03-01T08:02:23;81.50;;;38.05;;
56455;SDS011;42354;53.218;6.564;2023-03-01T08:04:48;69.50;;;35.58;;
56455;SDS011;42354;53.218;6.564;2023-03-01T08:07:14;72.00;;;38.67;;
56455;SDS011;42354;53.218;6.564;2023-03-01T08:09:39;81.30;;;42.85;;
56455;SDS011;42354;53.218;6.564;2023-03-01T08:12:04;89.15;;;44.67;;
56455;SDS011;42354;53.218;6.564;2023-03-01T08:14:33;88.55;;;45.95;;
56455;SDS011;42354;53.218;6.564;2023-03-01T08:16:59;88.65;;;43.42;;
56455;SDS011;42354;53.218;6.564;2023-03-01T08:19:24;82.00;;;41.78;;
56455;SDS011;42354;53.218;6.564;2023-03-01T08:21:50;78.20;;;38.83;;
56455;SDS011;42354;53.218;6.564;2023-03-01T08:24:15;86.50;;;43.55;;
56455;SDS011;42354;53.218;6.564;2023-03-01T08:26:41;80.45;;;39.90;;
56455;SDS011;42354;53.218;6.564;2023-03-01T08:29:06;82.68;;;40.03;;
56455;SDS011;42354;53.218;6.564;2023-03-01T08:31:33;79.85;;;40.45;;
56455;SDS011;42354;53.218;6.564;2023-03-01T08:34:03;79.72;;;39.75;;
56455;SDS011;42354;53.218;6.564;2023-03-01T08:36:35;79.18;;;37.80;;
56455;SDS011;42354;53.218;6.564;2023-03-01T08:39:02;70.75;;;34.97;;
56455;SDS011;42354;53.218;6.564;2023-03-01T08:41:28;67.15;;;34.22;;
56455;SDS011;42354;53.218;6.564;2023-03-01T08:43:54;66.88;;;34.67;;
56455;SDS011;42354;53.218;6.564;2023-03-01T08:46:24;66.47;;;34.58;;
56455;SDS011;42354;53.218;6.564;2023-03-01T08:48:53;59.53;;;29.45;;
56455;SDS011;42354;53.218;6.564;2023-03-01T08:51:19;56.20;;;29.27;;
56455;SDS011;42354;53.218;6.564;2023-03-01T08:53:46;53.80;;;28.50;;
56455;SDS011;42354;53.218;6.564;2023-03-01T08:56:12;54.88;;;28.73;;
56455;SDS011;42354;53.218;6.564;2023-03-01T08:58:38;57.88;;;28.83;;
56455;SDS011;42354;53.218;6.564;2023-03-01T09:01:07;55.35;;;29.95;;
56455;SDS011;42354;53.218;6.564;2023-03-01T09:03:34;61.55;;;29.67;;
56455;SDS011;42354;53.218;6.564;2023-03-01T09:06:00;56.40;;;29.30;;
56455;SDS011;42354;53.218;6.564;2023-03-01T09:08:27;51.25;;;27.25;;
56455;SDS011;42354;53.218;6.564;2023-03-01T09:10:52;48.97;;;26.63;;
56455;SDS011;42354;53.218;6.564;2023-03-01T09:13:19;47.00;;;25.67;;
56455;SDS011;42354;53.218;6.564;2023-03-01T09:15:44;45.67;;;24.45;;
56455;SDS011;42354;53.218;6.564;2023-03-01T09:18:10;46.70;;;26.10;;
56455;SDS011;42354;53.218;6.564;2023-03-01T09:20:35;48.92;;;25.10;;
56455;SDS011;42354;53.218;6.564;2023-03-01T09:23:01;46.35;;;25.85;;
56455;SDS011;42354;53.218;6.564;2023-03-01T09:25:26;49.40;;;26.05;;
56455;SDS011;42354;53.218;6.564;2023-03-01T09:27:52;45.05;;;24.48;;
56455;SDS011;42354;53.218;6.564;2023-03-01T09:30:18;43.70;;;25.52;;
56455;SDS011;42354;53.218;6.564;2023-03-01T09:32:44;44.78;;;24.80;;
56455;SDS011;42354;53.218;6.564;2023-03-01T09:35:10;40.60;;;23.67;;
56455;SDS011;42354;53.218;6.564;2023-03-01T09:37:38;41.35;;;23.05;;
56455;SDS011;42354;53.218;6.564;2023-03-01T09:40:12;40.03;;;22.45;;
56455;SDS011;42354;53.218;6.564;2023-03-01T09:42:47;35.95;;;20.77;;
56455;SDS011;42354;53.218;6.564;2023-03-01T09:45:37;43.15;;;21.48;;
56455;SDS011;42354;53.218;6.564;2023-03-01T09:48:10;36.70;;;20.00;;
56455;SDS011;42354;53.218;6.564;2023-03-01T09:50:41;41.25;;;23.23;;
56455;SDS011;42354;53.218;6.564;2023-03-01T09:53:15;36.08;;;20.42;;
56455;SDS011;42354;53.218;6.564;2023-03-01T10:00:50;34.13;;;19.67;;
56455;SDS011;42354;53.218;6.564;2023-03-01T10:03:26;30.27;;;18.75;;
56455;SDS011;42354;53.218;6.564;2023-03-01T10:06:01;30.20;;;18.17;;
56455;SDS011;42354;53.218;6.564;2023-03-01T10:08:42;28.23;;;15.95;;
56455;SDS011;42354;53.218;6.564;2023-03-01T10:11:24;26.23;;;15.95;;
56455;SDS011;42354;53.218;6.564;2023-03-01T10:16:46;28.98;;;18.08;;
56455;SDS011;42354;53.218;6.564;2023-03-01T10:19:21;29.67;;;18.83;;
56455;SDS011;42354;53.218;6.564;2023-03-01T10:27:12;33.83;;;18.98;;
56455;SDS011;42354;53.218;6.564;2023-03-01T10:29:50;32.10;;;19.38;;
56455;SDS011;42354;53.218;6.564;2023-03-01T10:32:18;33.72;;;19.95;;
56455;SDS011;42354;53.218;6.564;2023-03-01T10:34:43;30.52;;;19.30;;
56455;SDS011;42354;53.218;6.564;2023-03-01T10:37:19;28.25;;;17.60;;
56455;SDS011;42354;53.218;6.564;2023-03-01T10:40:06;31.33;;;17.70;;
56455;SDS011;42354;53.218;6.564;2023-03-01T10:42:38;30.25;;;18.48;;
56455;SDS011;42354;53.218;6.564;2023-03-01T10:47:42;32.03;;;19.58;;
56455;SDS011;42354;53.218;6.564;2023-03-01T10:50:22;29.75;;;17.27;;
56455;SDS011;42354;53.218;6.564;2023-03-01T10:52:58;28.52;;;17.58;;
56455;SDS011;42354;53.218;6.564;2023-03-01T10:58:08;30.48;;;19.38;;
56455;SDS011;42354;53.218;6.564;2023-03-01T11:00:47;30.52;;;18.23;;
56455;SDS011;42354;53.218;6.564;2023-03-01T11:03:23;31.70;;;19.75;;
56455;SDS011;42354;53.218;6.564;2023-03-01T11:05:51;25.50;;;17.20;;
56455;SDS011;42354;53.218;6.564;2023-03-01T11:08:32;28.85;;;18.13;;
56455;SDS011;42354;53.218;6.564;2023-03-01T11:11:06;27.42;;;17.88;;
56455;SDS011;42354;53.218;6.564;2023-03-01T11:13:49;28.67;;;19.65;;
56455;SDS011;42354;53.218;6.564;2023-03-01T11:16:22;25.05;;;16.90;;
56455;SDS011;42354;53.218;6.564;2023-03-01T11:18:57;27.92;;;18.63;;
56455;SDS011;42354;53.218;6.564;2023-03-01T11:21:25;23.92;;;16.48;;
56455;SDS011;42354;53.218;6.564;2023-03-01T11:23:53;29.20;;;17.90;;
56455;SDS011;42354;53.218;6.564;2023-03-01T11:26:18;30.27;;;17.70;;
56455;SDS011;42354;53.218;6.564;2023-03-01T11:28:46;32.15;;;18.15;;
56455;SDS011;42354;53.218;6.564;2023-03-01T11:31:16;26.77;;;18.02;;
56455;SDS011;42354;53.218;6.564;2023-03-01T11:33:53;24.80;;;15.02;;
56455;SDS011;42354;53.218;6.564;2023-03-01T11:39:15;23.08;;;15.77;;
56455;SDS011;42354;53.218;6.564;2023-03-01T11:44:22;15.27;;;10.45;;
56455;SDS011;42354;53.218;6.564;2023-03-01T12:23:02;22.30;;;13.60;;
56455;SDS011;42354;53.218;6.564;2023-03-01T12:25:39;23.30;;;13.52;;
56455;SDS011;42354;53.218;6.564;2023-03-01T12:30:59;28.67;;;14.95;;
56455;SDS011;42354;53.218;6.564;2023-03-01T12:39:07;25.38;;;15.63;;
56455;SDS011;42354;53.218;6.564;2023-03-01T12:41:58;25.15;;;15.57;;
56455;SDS011;42354;53.218;6.564;2023-03-01T12:49:44;26.52;;;15.30;;
56455;SDS011;42354;53.218;6.564;2023-03-01T12:52:35;19.83;;;13.88;;
56455;SDS011;42354;53.218;6.564;2023-03-01T12:55:24;24.80;;;15.35;;
56455;SDS011;42354;53.218;6.564;2023-03-01T12:58:18;26.60;;;15.52;;
56455;SDS011;42354;53.218;6.564;2023-03-01T13:11:41;20.05;;;12.18;;
56455;SDS011;42354;53.218;6.564;2023-03-01T13:16:46;20.95;;;12.25;;
56455;SDS011;42354;53.218;6.564;2023-03-01T13:21:46;19.20;;;12.40;;
56455;SDS011;42354;53.218;6.564;2023-03-01T13:24:28;19.80;;;12.63;;
56455;SDS011;42354;53.218;6.564;2023-03-01T13:27:42;19.60;;;13.07;;
56455;SDS011;42354;53.218;6.564;2023-03-01T13:29:58;22.73;;;13.10;;
56455;SDS011;42354;53.218;6.564;2023-03-01T13:32:31;23.45;;;13.95;;
56455;SDS011;42354;53.218;6.564;2023-03-01T13:35:02;20.80;;;13.15;;
56455;SDS011;42354;53.218;6.564;2023-03-01T13:37:34;23.02;;;13.65;;
56455;SDS011;42354;53.218;6.564;2023-03-01T13:40:56;18.03;;;12.37;;
56455;SDS011;42354;53.218;6.564;2023-03-01T13:42:54;22.73;;;14.50;;
56455;SDS011;42354;53.218;6.564;2023-03-01T13:45:25;23.83;;;14.45;;
56455;SDS011;42354;53.218;6.564;2023-03-01T13:48:16;21.77;;;13.55;;
56455;SDS011;42354;53.218;6.564;2023-03-01T13:50:50;20.23;;;13.02;;
56455;SDS011;42354;53.218;6.564;2023-03-01T13:53:19;23.02;;;13.52;;
56455;SDS011;42354;53.218;6.564;2023-03-01T13:55:51;21.23;;;12.95;;
56455;SDS011;42354;53.218;6.564;2023-03-01T13:58:28;22.20;;;12.75;;
56455;SDS011;42354;53.218;6.564;2023-03-01T14:00:57;23.08;;;12.45;;
56455;SDS011;42354;53.218;6.564;2023-03-01T14:03:30;21.40;;;12.27;;
56455;SDS011;42354;53.218;6.564;2023-03-01T14:08:42;19.48;;;12.10;;
56455;SDS011;42354;53.218;6.564;2023-03-01T14:11:26;20.05;;;12.10;;
56455;SDS011;42354;53.218;6.564;2023-03-01T14:19:40;20.40;;;12.60;;
56455;SDS011;42354;53.218;6.564;2023-03-01T14:24:52;24.92;;;13.80;;
56455;SDS011;42354;53.218;6.564;2023-03-01T14:27:21;22.58;;;13.55;;
56455;SDS011;42354;53.218;6.564;2023-03-01T14:29:55;22.05;;;13.98;;
56455;SDS011;42354;53.218;6.564;2023-03-01T14:32:29;21.27;;;13.50;;
56455;SDS011;42354;53.218;6.564;2023-03-01T14:34:57;23.83;;;13.63;;
56455;SDS011;42354;53.218;6.564;2023-03-01T14:39:51;23.73;;;13.95;;
56455;SDS011;42354;53.218;6.564;2023-03-01T14:42:19;25.25;;;14.63;;
56455;SDS011;42354;53.218;6.564;2023-03-01T14:44:49;27.42;;;15.38;;
56455;SDS011;42354;53.218;6.564;2023-03-01T14:47:23;21.38;;;13.52;;
56455;SDS011;42354;53.218;6.564;2023-03-01T14:49:51;24.50;;;14.82;;
56455;SDS011;42354;53.218;6.564;2023-03-01T14:52:23;26.05;;;14.98;;
56455;SDS011;42354;53.218;6.564;2023-03-01T14:57:23;23.08;;;14.00;;
56455;SDS011;42354;53.218;6.564;2023-03-01T14:59:51;22.25;;;12.80;;
56455;SDS011;42354;53.218;6.564;2023-03-01T15:02:20;24.35;;;13.35;;
56455;SDS011;42354;53.218;6.564;2023-03-01T15:04:51;24.83;;;13.48;;
56455;SDS011;42354;53.218;6.564;2023-03-01T15:07:22;25.60;;;14.10;;
56455;SDS011;42354;53.218;6.564;2023-03-01T15:09:51;23.55;;;13.57;;
56455;SDS011;42354;53.218;6.564;2023-03-01T15:12:24;21.67;;;13.82;;
56455;SDS011;42354;53.218;6.564;2023-03-01T15:14:54;23.67;;;14.75;;
56455;SDS011;42354;53.218;6.564;2023-03-01T15:17:23;25.05;;;13.48;;
56455;SDS011;42354;53.218;6.564;2023-03-01T15:19:55;24.27;;;14.25;;
56455;SDS011;42354;53.218;6.564;2023-03-01T15:22:21;25.58;;;14.55;;
56455;SDS011;42354;53.218;6.564;2023-03-01T15:24:49;25.33;;;14.98;;
56455;SDS011;42354;53.218;6.564;2023-03-01T15:27:19;25.35;;;14.60;;
56455;SDS011;42354;53.218;6.564;2023-03-01T15:29:59;27.20;;;15.45;;
56455;SDS011;42354;53.218;6.564;2023-03-01T15:32:34;25.83;;;14.90;;
56455;SDS011;42354;53.218;6.564;2023-03-01T15:38:00;23.35;;;14.32;;
56455;SDS011;42354;53.218;6.564;2023-03-01T15:40:26;22.20;;;13.95;;
56455;SDS011;42354;53.218;6.564;2023-03-01T15:43:05;21.38;;;14.15;;
56455;SDS011;42354;53.218;6.564;2023-03-01T15:45:32;23.40;;;13.98;;
56455;SDS011;42354;53.218;6.564;2023-03-01T15:48:24;23.38;;;13.88;;
56455;SDS011;42354;53.218;6.564;2023-03-01T15:50:57;24.45;;;14.38;;
56455;SDS011;42354;53.218;6.564;2023-03-01T15:53:24;28.35;;;15.30;;
56455;SDS011;42354;53.218;6.564;2023-03-01T15:55:52;25.85;;;15.32;;
56455;SDS011;42354;53.218;6.564;2023-03-01T15:58:19;26.35;;;14.82;;
56455;SDS011;42354;53.218;6.564;2023-03-01T16:00:46;25.88;;;14.23;;
56455;SDS011;42354;53.218;6.564;2023-03-01T16:03:14;25.20;;;14.85;;
56455;SDS011;42354;53.218;6.564;2023-03-01T16:05:47;28.73;;;15.27;;
56455;SDS011;42354;53.218;6.564;2023-03-01T16:08:14;25.52;;;14.77;;
56455;SDS011;42354;53.218;6.564;2023-03-01T16:10:40;26.38;;;15.20;;
56455;SDS011;42354;53.218;6.564;2023-03-01T16:13:08;24.42;;;15.10;;
56455;SDS011;42354;53.218;6.564;2023-03-01T16:15:34;27.00;;;15.77;;
56455;SDS011;42354;53.218;6.564;2023-03-01T16:18:00;23.17;;;15.00;;
56455;SDS011;42354;53.218;6.564;2023-03-01T16:20:27;25.75;;;15.20;;
56455;SDS011;42354;53.218;6.564;2023-03-01T16:22:54;26.15;;;15.60;;
56455;SDS011;42354;53.218;6.564;2023-03-01T16:25:20;31.42;;;15.95;;
56455;SDS011;42354;53.218;6.564;2023-03-01T16:27:47;29.27;;;15.75;;
56455;SDS011;42354;53.218;6.564;2023-03-01T16:30:14;29.20;;;16.20;;
56455;SDS011;42354;53.218;6.564;2023-03-01T16:32:41;24.95;;;15.05;;